Portada
METAR-TAF:

METAR-TAF

Aeroports :

Doylestown Airport

Doylestown, Pennsilvània, Estats Units d'Amèrica

latitud: 40-19-48N, longitud: 075-07-21W, altitud: 120 m

Observació

L'informe es va fer fa 1 hora i 5 minuts, a les 19:54 UTC
Vent 9 kt del Sud/Sud-Oest amb ràfegues de 15 kt, variant entre Sud i Oest/Sud-Oest
Temperatura 26°C
Humitat 37%
Pressió 1016 hPa
Visibilitat: 16.1 km
Cel ennuvolat a una alçada de 11000 ft

METAR: KDYL 151954Z AUTO 21009G15KT 180V250 10SM BKN110 26/10 A3001 RMK AO2 SLP159 T02610100

Hora: 16:59 (20:59 UTC)


TAF: manca

Observacions i pronòstics meteorològics de més de 4000 aeroports (METAR i TAF).

Les estacions disponibles són els punts grocs i vermells al mapa.

Posi el ratolí al punt desitjat per veure el nom de l'estació.

Feu clic per veure les observacions i els pronòstics meteorològics.

Per canviar el mapa: feu clic els botons verds amb una creu de color negre per apropar; al botó verd amb un guió per allunyar la imatge; o en les fletxes verdes per a mapes adjacents.


METAR-TAF: